sensor_id;sensor_type;location;lat;lon;timestamp;P1;durP1;ratioP1;P2;durP2;ratioP2
31818;SDS011;18384;48.860;9.188;2023-04-08T00:00:12;13.93;;;9.13;;
31818;SDS011;18384;48.860;9.188;2023-04-08T00:02:38;15.20;;;8.60;;
31818;SDS011;18384;48.860;9.188;2023-04-08T00:05:05;12.93;;;8.85;;
31818;SDS011;18384;48.860;9.188;2023-04-08T00:07:32;12.88;;;8.60;;
31818;SDS011;18384;48.860;9.188;2023-04-08T00:12:24;12.93;;;9.00;;
31818;SDS011;18384;48.860;9.188;2023-04-08T00:14:51;15.15;;;9.18;;
31818;SDS011;18384;48.860;9.188;2023-04-08T00:17:17;13.05;;;9.00;;
31818;SDS011;18384;48.860;9.188;2023-04-08T00:19:43;14.10;;;9.15;;
31818;SDS011;18384;48.860;9.188;2023-04-08T00:22:10;14.48;;;9.38;;
31818;SDS011;18384;48.860;9.188;2023-04-08T00:27:02;13.88;;;9.82;;
31818;SDS011;18384;48.860;9.188;2023-04-08T00:31:55;15.05;;;10.02;;
31818;SDS011;18384;48.860;9.188;2023-04-08T00:34:21;13.75;;;9.63;;
31818;SDS011;18384;48.860;9.188;2023-04-08T00:36:47;14.55;;;9.55;;
31818;SDS011;18384;48.860;9.188;2023-04-08T00:39:13;13.68;;;9.23;;
31818;SDS011;18384;48.860;9.188;2023-04-08T00:41:40;16.08;;;10.65;;
31818;SDS011;18384;48.860;9.188;2023-04-08T00:44:06;14.35;;;10.10;;
31818;SDS011;18384;48.860;9.188;2023-04-08T00:46:34;20.35;;;10.40;;
31818;SDS011;18384;48.860;9.188;2023-04-08T00:49:03;14.20;;;10.00;;
31818;SDS011;18384;48.860;9.188;2023-04-08T00:51:34;15.40;;;10.05;;
31818;SDS011;18384;48.860;9.188;2023-04-08T00:54:03;14.90;;;10.05;;
31818;SDS011;18384;48.860;9.188;2023-04-08T00:56:30;16.20;;;10.15;;
31818;SDS011;18384;48.860;9.188;2023-04-08T00:58:58;18.50;;;10.40;;
31818;SDS011;18384;48.860;9.188;2023-04-08T01:01:33;16.48;;;10.40;;
31818;SDS011;18384;48.860;9.188;2023-04-08T01:05:05;14.87;;;9.13;;
31818;SDS011;18384;48.860;9.188;2023-04-08T01:07:48;14.70;;;9.73;;
31818;SDS011;18384;48.860;9.188;2023-04-08T01:10:36;13.57;;;9.52;;
31818;SDS011;18384;48.860;9.188;2023-04-08T01:13:21;13.00;;;8.80;;
31818;SDS011;18384;48.860;9.188;2023-04-08T01:15:50;16.25;;;9.90;;
31818;SDS011;18384;48.860;9.188;2023-04-08T01:18:18;17.23;;;10.27;;
31818;SDS011;18384;48.860;9.188;2023-04-08T01:20:51;13.82;;;9.23;;
31818;SDS011;18384;48.860;9.188;2023-04-08T01:23:39;13.65;;;9.25;;
31818;SDS011;18384;48.860;9.188;2023-04-08T01:26:51;14.13;;;9.60;;
31818;SDS011;18384;48.860;9.188;2023-04-08T01:29:17;17.55;;;10.50;;
31818;SDS011;18384;48.860;9.188;2023-04-08T01:31:44;15.75;;;10.05;;
31818;SDS011;18384;48.860;9.188;2023-04-08T01:34:20;15.00;;;10.27;;
31818;SDS011;18384;48.860;9.188;2023-04-08T01:36:49;15.25;;;10.27;;
31818;SDS011;18384;48.860;9.188;2023-04-08T01:39:17;15.75;;;10.00;;
31818;SDS011;18384;48.860;9.188;2023-04-08T01:41:45;16.80;;;10.55;;
31818;SDS011;18384;48.860;9.188;2023-04-08T01:44:16;14.18;;;10.20;;
31818;SDS011;18384;48.860;9.188;2023-04-08T01:46:44;14.48;;;10.10;;
31818;SDS011;18384;48.860;9.188;2023-04-08T01:49:12;15.98;;;9.50;;
31818;SDS011;18384;48.860;9.188;2023-04-08T01:51:40;16.92;;;10.68;;
31818;SDS011;18384;48.860;9.188;2023-04-08T01:54:07;16.70;;;11.85;;
31818;SDS011;18384;48.860;9.188;2023-04-08T01:56:35;15.73;;;11.07;;
31818;SDS011;18384;48.860;9.188;2023-04-08T01:59:05;17.23;;;10.75;;
31818;SDS011;18384;48.860;9.188;2023-04-08T02:01:38;16.25;;;11.10;;
31818;SDS011;18384;48.860;9.188;2023-04-08T02:04:07;16.48;;;11.73;;
31818;SDS011;18384;48.860;9.188;2023-04-08T02:06:38;16.02;;;12.07;;
31818;SDS011;18384;48.860;9.188;2023-04-08T02:09:04;17.85;;;11.93;;
31818;SDS011;18384;48.860;9.188;2023-04-08T02:11:30;17.15;;;10.63;;
31818;SDS011;18384;48.860;9.188;2023-04-08T02:13:56;17.17;;;10.65;;
31818;SDS011;18384;48.860;9.188;2023-04-08T02:16:25;17.17;;;11.30;;
31818;SDS011;18384;48.860;9.188;2023-04-08T02:19:28;19.40;;;11.95;;
31818;SDS011;18384;48.860;9.188;2023-04-08T02:22:11;18.35;;;11.07;;
31818;SDS011;18384;48.860;9.188;2023-04-08T02:24:47;20.70;;;12.35;;
31818;SDS011;18384;48.860;9.188;2023-04-08T02:27:15;19.52;;;11.98;;
31818;SDS011;18384;48.860;9.188;2023-04-08T02:29:42;16.12;;;10.60;;
31818;SDS011;18384;48.860;9.188;2023-04-08T02:32:10;15.68;;;10.38;;
31818;SDS011;18384;48.860;9.188;2023-04-08T02:34:38;17.77;;;11.63;;
31818;SDS011;18384;48.860;9.188;2023-04-08T02:37:06;17.80;;;11.63;;
31818;SDS011;18384;48.860;9.188;2023-04-08T02:39:33;18.62;;;11.68;;
31818;SDS011;18384;48.860;9.188;2023-04-08T02:44:26;17.05;;;10.98;;
31818;SDS011;18384;48.860;9.188;2023-04-08T02:46:52;18.27;;;11.35;;
31818;SDS011;18384;48.860;9.188;2023-04-08T02:49:18;18.80;;;11.30;;
31818;SDS011;18384;48.860;9.188;2023-04-08T02:51:44;18.98;;;11.77;;
31818;SDS011;18384;48.860;9.188;2023-04-08T02:54:10;17.77;;;11.57;;
31818;SDS011;18384;48.860;9.188;2023-04-08T02:56:36;21.95;;;13.00;;
31818;SDS011;18384;48.860;9.188;2023-04-08T02:59:02;18.95;;;12.68;;
31818;SDS011;18384;48.860;9.188;2023-04-08T03:01:29;21.23;;;13.60;;
31818;SDS011;18384;48.860;9.188;2023-04-08T03:03:55;24.05;;;13.70;;
31818;SDS011;18384;48.860;9.188;2023-04-08T03:06:21;23.65;;;13.65;;
31818;SDS011;18384;48.860;9.188;2023-04-08T03:08:47;21.05;;;13.38;;
31818;SDS011;18384;48.860;9.188;2023-04-08T03:11:13;23.77;;;14.38;;
31818;SDS011;18384;48.860;9.188;2023-04-08T03:16:06;25.58;;;13.20;;
31818;SDS011;18384;48.860;9.188;2023-04-08T03:18:32;25.70;;;13.77;;
31818;SDS011;18384;48.860;9.188;2023-04-08T03:20:58;22.05;;;13.55;;
31818;SDS011;18384;48.860;9.188;2023-04-08T03:23:25;27.95;;;14.38;;
31818;SDS011;18384;48.860;9.188;2023-04-08T03:25:51;27.55;;;14.93;;
31818;SDS011;18384;48.860;9.188;2023-04-08T03:28:17;24.73;;;13.43;;
31818;SDS011;18384;48.860;9.188;2023-04-08T03:30:43;28.27;;;14.35;;
31818;SDS011;18384;48.860;9.188;2023-04-08T03:33:10;24.35;;;14.23;;
31818;SDS011;18384;48.860;9.188;2023-04-08T03:35:36;22.85;;;13.90;;
31818;SDS011;18384;48.860;9.188;2023-04-08T03:38:02;25.98;;;14.10;;
31818;SDS011;18384;48.860;9.188;2023-04-08T03:40:29;23.58;;;13.77;;
31818;SDS011;18384;48.860;9.188;2023-04-08T03:42:55;30.17;;;14.65;;
31818;SDS011;18384;48.860;9.188;2023-04-08T03:45:21;30.77;;;14.82;;
31818;SDS011;18384;48.860;9.188;2023-04-08T03:47:47;25.77;;;14.60;;
31818;SDS011;18384;48.860;9.188;2023-04-08T03:50:13;26.25;;;14.05;;
31818;SDS011;18384;48.860;9.188;2023-04-08T03:52:39;31.58;;;14.98;;
31818;SDS011;18384;48.860;9.188;2023-04-08T03:55:06;26.25;;;15.32;;
31818;SDS011;18384;48.860;9.188;2023-04-08T03:57:32;30.58;;;15.32;;
31818;SDS011;18384;48.860;9.188;2023-04-08T03:59:58;24.77;;;15.10;;
31818;SDS011;18384;48.860;9.188;2023-04-08T04:02:25;29.65;;;14.52;;
31818;SDS011;18384;48.860;9.188;2023-04-08T04:04:51;29.30;;;15.20;;
31818;SDS011;18384;48.860;9.188;2023-04-08T04:07:17;29.70;;;15.30;;
31818;SDS011;18384;48.860;9.188;2023-04-08T04:09:43;27.87;;;14.95;;
31818;SDS011;18384;48.860;9.188;2023-04-08T04:12:09;26.67;;;14.87;;
31818;SDS011;18384;48.860;9.188;2023-04-08T04:14:35;27.70;;;15.15;;
31818;SDS011;18384;48.860;9.188;2023-04-08T04:17:01;28.90;;;15.38;;
31818;SDS011;18384;48.860;9.188;2023-04-08T04:19:30;28.27;;;16.15;;
31818;SDS011;18384;48.860;9.188;2023-04-08T04:21:57;30.37;;;15.27;;
31818;SDS011;18384;48.860;9.188;2023-04-08T04:24:23;30.02;;;15.43;;
31818;SDS011;18384;48.860;9.188;2023-04-08T04:26:49;27.23;;;15.68;;
31818;SDS011;18384;48.860;9.188;2023-04-08T04:29:15;28.70;;;15.60;;
31818;SDS011;18384;48.860;9.188;2023-04-08T04:31:41;33.38;;;15.68;;
31818;SDS011;18384;48.860;9.188;2023-04-08T04:34:07;25.92;;;15.65;;
31818;SDS011;18384;48.860;9.188;2023-04-08T04:36:33;28.42;;;15.90;;
31818;SDS011;18384;48.860;9.188;2023-04-08T04:38:59;26.95;;;14.73;;
31818;SDS011;18384;48.860;9.188;2023-04-08T04:41:25;29.55;;;16.52;;
31818;SDS011;18384;48.860;9.188;2023-04-08T04:43:52;28.15;;;15.68;;
31818;SDS011;18384;48.860;9.188;2023-04-08T04:46:18;31.45;;;15.93;;
31818;SDS011;18384;48.860;9.188;2023-04-08T04:48:44;25.92;;;15.52;;
31818;SDS011;18384;48.860;9.188;2023-04-08T04:51:10;26.17;;;15.68;;
31818;SDS011;18384;48.860;9.188;2023-04-08T04:53:36;29.80;;;15.95;;
31818;SDS011;18384;48.860;9.188;2023-04-08T04:56:02;31.73;;;16.15;;
31818;SDS011;18384;48.860;9.188;2023-04-08T04:58:28;27.37;;;16.37;;
31818;SDS011;18384;48.860;9.188;2023-04-08T05:00:55;34.33;;;16.73;;
31818;SDS011;18384;48.860;9.188;2023-04-08T05:05:50;29.83;;;15.88;;
31818;SDS011;18384;48.860;9.188;2023-04-08T05:08:17;31.42;;;15.98;;
31818;SDS011;18384;48.860;9.188;2023-04-08T05:10:44;26.27;;;15.05;;
31818;SDS011;18384;48.860;9.188;2023-04-08T05:13:10;34.33;;;17.35;;
31818;SDS011;18384;48.860;9.188;2023-04-08T05:15:36;30.08;;;16.98;;
31818;SDS011;18384;48.860;9.188;2023-04-08T05:18:02;28.87;;;17.35;;
31818;SDS011;18384;48.860;9.188;2023-04-08T05:20:28;33.15;;;17.12;;
31818;SDS011;18384;48.860;9.188;2023-04-08T05:22:55;35.15;;;18.42;;
31818;SDS011;18384;48.860;9.188;2023-04-08T05:25:21;31.23;;;16.75;;
31818;SDS011;18384;48.860;9.188;2023-04-08T05:27:47;33.10;;;16.70;;
31818;SDS011;18384;48.860;9.188;2023-04-08T05:30:13;29.02;;;16.60;;
31818;SDS011;18384;48.860;9.188;2023-04-08T05:32:40;30.10;;;16.73;;
31818;SDS011;18384;48.860;9.188;2023-04-08T05:35:06;31.00;;;17.37;;
31818;SDS011;18384;48.860;9.188;2023-04-08T05:37:33;33.53;;;16.85;;
31818;SDS011;18384;48.860;9.188;2023-04-08T05:39:59;40.72;;;17.08;;
31818;SDS011;18384;48.860;9.188;2023-04-08T05:42:26;30.00;;;16.70;;
31818;SDS011;18384;48.860;9.188;2023-04-08T05:44:52;28.65;;;15.35;;
31818;SDS011;18384;48.860;9.188;2023-04-08T05:47:18;34.05;;;16.58;;
31818;SDS011;18384;48.860;9.188;2023-04-08T05:49:44;49.13;;;16.37;;
31818;SDS011;18384;48.860;9.188;2023-04-08T05:52:10;27.23;;;16.15;;
31818;SDS011;18384;48.860;9.188;2023-04-08T05:54:36;27.65;;;16.62;;
31818;SDS011;18384;48.860;9.188;2023-04-08T05:57:02;31.50;;;15.55;;
31818;SDS011;18384;48.860;9.188;2023-04-08T05:59:28;38.60;;;17.15;;
31818;SDS011;18384;48.860;9.188;2023-04-08T06:01:54;32.45;;;16.50;;
31818;SDS011;18384;48.860;9.188;2023-04-08T06:04:21;32.80;;;17.00;;
31818;SDS011;18384;48.860;9.188;2023-04-08T06:06:47;28.10;;;16.55;;
31818;SDS011;18384;48.860;9.188;2023-04-08T06:09:13;29.65;;;17.33;;
31818;SDS011;18384;48.860;9.188;2023-04-08T06:11:39;33.20;;;16.30;;
31818;SDS011;18384;48.860;9.188;2023-04-08T06:14:05;29.15;;;16.92;;
31818;SDS011;18384;48.860;9.188;2023-04-08T06:16:31;29.77;;;16.00;;
31818;SDS011;18384;48.860;9.188;2023-04-08T06:18:57;25.33;;;17.08;;
31818;SDS011;18384;48.860;9.188;2023-04-08T06:21:23;31.37;;;16.77;;
31818;SDS011;18384;48.860;9.188;2023-04-08T06:23:50;27.33;;;16.00;;
31818;SDS011;18384;48.860;9.188;2023-04-08T06:26:16;25.65;;;16.30;;
31818;SDS011;18384;48.860;9.188;2023-04-08T06:28:42;27.90;;;16.12;;
31818;SDS011;18384;48.860;9.188;2023-04-08T06:31:08;32.85;;;17.02;;
31818;SDS011;18384;48.860;9.188;2023-04-08T06:33:35;32.05;;;17.42;;
31818;SDS011;18384;48.860;9.188;2023-04-08T06:36:01;23.52;;;14.52;;
31818;SDS011;18384;48.860;9.188;2023-04-08T06:38:31;24.87;;;15.40;;
31818;SDS011;18384;48.860;9.188;2023-04-08T06:41:07;27.13;;;15.88;;
31818;SDS011;18384;48.860;9.188;2023-04-08T06:43:33;29.42;;;16.98;;
31818;SDS011;18384;48.860;9.188;2023-04-08T06:46:00;25.52;;;15.65;;
31818;SDS011;18384;48.860;9.188;2023-04-08T06:48:26;22.23;;;14.73;;
31818;SDS011;18384;48.860;9.188;2023-04-08T06:50:57;21.48;;;14.43;;
31818;SDS011;18384;48.860;9.188;2023-04-08T06:53:24;26.02;;;15.70;;
31818;SDS011;18384;48.860;9.188;2023-04-08T06:55:53;23.70;;;14.98;;
31818;SDS011;18384;48.860;9.188;2023-04-08T06:58:19;25.08;;;15.13;;
31818;SDS011;18384;48.860;9.188;2023-04-08T07:00:45;24.55;;;14.90;;
31818;SDS011;18384;48.860;9.188;2023-04-08T07:05:38;24.42;;;16.00;;
31818;SDS011;18384;48.860;9.188;2023-04-08T07:08:06;24.85;;;15.23;;
31818;SDS011;18384;48.860;9.188;2023-04-08T07:10:35;24.85;;;14.70;;
31818;SDS011;18384;48.860;9.188;2023-04-08T07:13:02;26.20;;;15.00;;
31818;SDS011;18384;48.860;9.188;2023-04-08T07:17:54;21.23;;;13.85;;
31818;SDS011;18384;48.860;9.188;2023-04-08T07:20:24;23.35;;;13.85;;
31818;SDS011;18384;48.860;9.188;2023-04-08T07:22:50;19.75;;;13.45;;
31818;SDS011;18384;48.860;9.188;2023-04-08T07:25:16;19.40;;;12.50;;
31818;SDS011;18384;48.860;9.188;2023-04-08T07:30:09;22.40;;;12.77;;
31818;SDS011;18384;48.860;9.188;2023-04-08T07:32:35;19.58;;;12.55;;
31818;SDS011;18384;48.860;9.188;2023-04-08T07:35:01;19.50;;;13.18;;
31818;SDS011;18384;48.860;9.188;2023-04-08T07:37:28;20.20;;;12.77;;
31818;SDS011;18384;48.860;9.188;2023-04-08T07:39:54;21.15;;;13.20;;
31818;SDS011;18384;48.860;9.188;2023-04-08T07:42:20;19.77;;;13.00;;
31818;SDS011;18384;48.860;9.188;2023-04-08T07:44:46;24.95;;;11.95;;
31818;SDS011;18384;48.860;9.188;2023-04-08T07:47:12;19.33;;;11.88;;
31818;SDS011;18384;48.860;9.188;2023-04-08T07:49:38;20.73;;;11.57;;
31818;SDS011;18384;48.860;9.188;2023-04-08T07:52:05;17.48;;;11.23;;
31818;SDS011;18384;48.860;9.188;2023-04-08T07:54:31;15.75;;;10.93;;
31818;SDS011;18384;48.860;9.188;2023-04-08T07:57:01;18.92;;;12.00;;
31818;SDS011;18384;48.860;9.188;2023-04-08T07:59:27;18.10;;;11.07;;
31818;SDS011;18384;48.860;9.188;2023-04-08T08:04:19;18.30;;;11.48;;
31818;SDS011;18384;48.860;9.188;2023-04-08T08:06:46;19.98;;;11.88;;
31818;SDS011;18384;48.860;9.188;2023-04-08T08:09:12;18.27;;;11.57;;
31818;SDS011;18384;48.860;9.188;2023-04-08T08:11:38;18.35;;;11.68;;
31818;SDS011;18384;48.860;9.188;2023-04-08T08:14:04;18.48;;;10.95;;
31818;SDS011;18384;48.860;9.188;2023-04-08T08:16:32;20.90;;;11.65;;
31818;SDS011;18384;48.860;9.188;2023-04-08T08:18:58;21.40;;;10.88;;
31818;SDS011;18384;48.860;9.188;2023-04-08T08:21:24;17.62;;;10.65;;
31818;SDS011;18384;48.860;9.188;2023-04-08T08:23:53;14.38;;;10.60;;
31818;SDS011;18384;48.860;9.188;2023-04-08T08:26:20;16.05;;;10.52;;
31818;SDS011;18384;48.860;9.188;2023-04-08T08:28:47;20.35;;;11.48;;
31818;SDS011;18384;48.860;9.188;2023-04-08T08:31:13;16.50;;;10.45;;
31818;SDS011;18384;48.860;9.188;2023-04-08T08:33:39;16.17;;;11.23;;
31818;SDS011;18384;48.860;9.188;2023-04-08T08:36:05;23.50;;;11.80;;
31818;SDS011;18384;48.860;9.188;2023-04-08T08:38:31;18.20;;;10.93;;
31818;SDS011;18384;48.860;9.188;2023-04-08T08:40:58;18.10;;;11.73;;
31818;SDS011;18384;48.860;9.188;2023-04-08T08:43:25;14.43;;;10.30;;
31818;SDS011;18384;48.860;9.188;2023-04-08T08:45:54;17.35;;;10.45;;
31818;SDS011;18384;48.860;9.188;2023-04-08T08:48:20;18.10;;;10.65;;
31818;SDS011;18384;48.860;9.188;2023-04-08T08:50:47;17.45;;;10.93;;
31818;SDS011;18384;48.860;9.188;2023-04-08T08:53:13;16.90;;;10.55;;
31818;SDS011;18384;48.860;9.188;2023-04-08T08:55:39;17.30;;;10.60;;
31818;SDS011;18384;48.860;9.188;2023-04-08T08:58:05;16.65;;;10.68;;
31818;SDS011;18384;48.860;9.188;2023-04-08T09:00:38;15.77;;;11.32;;
31818;SDS011;18384;48.860;9.188;2023-04-08T09:06:00;14.77;;;9.93;;
31818;SDS011;18384;48.860;9.188;2023-04-08T09:08:29;17.12;;;11.57;;
31818;SDS011;18384;48.860;9.188;2023-04-08T09:11:16;13.45;;;10.02;;
31818;SDS011;18384;48.860;9.188;2023-04-08T09:13:44;15.75;;;11.07;;
31818;SDS011;18384;48.860;9.188;2023-04-08T09:16:11;16.15;;;10.43;;
31818;SDS011;18384;48.860;9.188;2023-04-08T09:18:42;17.48;;;10.65;;
31818;SDS011;18384;48.860;9.188;2023-04-08T09:21:10;18.87;;;10.05;;
31818;SDS011;18384;48.860;9.188;2023-04-08T09:23:39;17.25;;;10.43;;
31818;SDS011;18384;48.860;9.188;2023-04-08T09:26:20;15.98;;;9.85;;
31818;SDS011;18384;48.860;9.188;2023-04-08T09:29:01;14.73;;;10.48;;
31818;SDS011;18384;48.860;9.188;2023-04-08T09:31:36;14.75;;;10.60;;
31818;SDS011;18384;48.860;9.188;2023-04-08T09:34:12;15.70;;;10.88;;
31818;SDS011;18384;48.860;9.188;2023-04-08T09:36:50;17.42;;;11.35;;
31818;SDS011;18384;48.860;9.188;2023-04-08T09:39:17;15.27;;;10.45;;
31818;SDS011;18384;48.860;9.188;2023-04-08T09:41:44;16.77;;;10.80;;
31818;SDS011;18384;48.860;9.188;2023-04-08T09:44:14;14.65;;;10.43;;
31818;SDS011;18384;48.860;9.188;2023-04-08T09:46:55;21.08;;;10.90;;
31818;SDS011;18384;48.860;9.188;2023-04-08T09:49:33;16.77;;;9.82;;
31818;SDS011;18384;48.860;9.188;2023-04-08T09:52:10;15.85;;;9.90;;
31818;SDS011;18384;48.860;9.188;2023-04-08T09:55:04;18.08;;;10.65;;
31818;SDS011;18384;48.860;9.188;2023-04-08T09:57:54;14.95;;;10.32;;
31818;SDS011;18384;48.860;9.188;2023-04-08T10:00:27;18.50;;;10.05;;
31818;SDS011;18384;48.860;9.188;2023-04-08T10:03:09;14.95;;;9.63;;
31818;SDS011;18384;48.860;9.188;2023-04-08T10:06:04;14.43;;;9.15;;
31818;SDS011;18384;48.860;9.188;2023-04-08T10:08:32;17.52;;;9.68;;
31818;SDS011;18384;48.860;9.188;2023-04-08T10:11:00;17.23;;;9.32;;
31818;SDS011;18384;48.860;9.188;2023-04-08T10:13:26;13.62;;;8.70;;
31818;SDS011;18384;48.860;9.188;2023-04-08T10:18:49;12.73;;;8.80;;
31818;SDS011;18384;48.860;9.188;2023-04-08T10:21:35;14.10;;;9.57;;
31818;SDS011;18384;48.860;9.188;2023-04-08T10:24:09;15.07;;;9.18;;
31818;SDS011;18384;48.860;9.188;2023-04-08T10:26:43;13.75;;;9.68;;
31818;SDS011;18384;48.860;9.188;2023-04-08T10:39:26;20.30;;;9.85;;
31818;SDS011;18384;48.860;9.188;2023-04-08T10:44:18;13.60;;;9.25;;
31818;SDS011;18384;48.860;9.188;2023-04-08T10:46:50;15.80;;;9.70;;
31818;SDS011;18384;48.860;9.188;2023-04-08T10:49:18;15.85;;;9.55;;
31818;SDS011;18384;48.860;9.188;2023-04-08T10:51:46;16.17;;;9.40;;
31818;SDS011;18384;48.860;9.188;2023-04-08T10:54:13;13.88;;;8.52;;
31818;SDS011;18384;48.860;9.188;2023-04-08T10:56:43;12.40;;;8.88;;
31818;SDS011;18384;48.860;9.188;2023-04-08T10:59:15;13.75;;;9.18;;
31818;SDS011;18384;48.860;9.188;2023-04-08T11:01:52;11.93;;;8.32;;
31818;SDS011;18384;48.860;9.188;2023-04-08T11:04:19;15.25;;;9.15;;
31818;SDS011;18384;48.860;9.188;2023-04-08T11:06:47;15.02;;;10.00;;
31818;SDS011;18384;48.860;9.188;2023-04-08T11:11:43;14.80;;;9.13;;
31818;SDS011;18384;48.860;9.188;2023-04-08T11:14:11;11.95;;;8.60;;
31818;SDS011;18384;48.860;9.188;2023-04-08T11:16:37;17.90;;;9.27;;
31818;SDS011;18384;48.860;9.188;2023-04-08T11:19:04;12.93;;;9.02;;
31818;SDS011;18384;48.860;9.188;2023-04-08T11:21:31;15.63;;;8.95;;
31818;SDS011;18384;48.860;9.188;2023-04-08T11:24:04;18.02;;;10.60;;
31818;SDS011;18384;48.860;9.188;2023-04-08T11:26:31;15.68;;;9.65;;
31818;SDS011;18384;48.860;9.188;2023-04-08T11:28:58;11.77;;;8.02;;
31818;SDS011;18384;48.860;9.188;2023-04-08T11:31:25;15.70;;;9.45;;
31818;SDS011;18384;48.860;9.188;2023-04-08T11:33:52;22.37;;;12.07;;
31818;SDS011;18384;48.860;9.188;2023-04-08T11:36:22;17.55;;;10.05;;
31818;SDS011;18384;48.860;9.188;2023-04-08T11:38:48;14.93;;;8.85;;
31818;SDS011;18384;48.860;9.188;2023-04-08T11:41:17;12.65;;;8.65;;
31818;SDS011;18384;48.860;9.188;2023-04-08T11:43:53;11.82;;;7.32;;
31818;SDS011;18384;48.860;9.188;2023-04-08T11:48:56;15.80;;;8.73;;
31818;SDS011;18384;48.860;9.188;2023-04-08T11:51:27;12.07;;;8.77;;
31818;SDS011;18384;48.860;9.188;2023-04-08T11:53:53;12.90;;;7.85;;
31818;SDS011;18384;48.860;9.188;2023-04-08T11:58:50;11.15;;;7.62;;
31818;SDS011;18384;48.860;9.188;2023-04-08T12:01:17;13.68;;;9.02;;
31818;SDS011;18384;48.860;9.188;2023-04-08T12:03:56;18.85;;;8.93;;
31818;SDS011;18384;48.860;9.188;2023-04-08T12:06:24;12.15;;;7.87;;
31818;SDS011;18384;48.860;9.188;2023-04-08T12:08:51;15.00;;;9.00;;
31818;SDS011;18384;48.860;9.188;2023-04-08T12:11:18;12.57;;;7.78;;
31818;SDS011;18384;48.860;9.188;2023-04-08T12:16:10;12.25;;;7.65;;
31818;SDS011;18384;48.860;9.188;2023-04-08T12:18:37;15.10;;;8.27;;
31818;SDS011;18384;48.860;9.188;2023-04-08T12:21:03;12.25;;;8.32;;
31818;SDS011;18384;48.860;9.188;2023-04-08T12:23:29;15.02;;;8.57;;
31818;SDS011;18384;48.860;9.188;2023-04-08T12:25:55;12.65;;;7.97;;
31818;SDS011;18384;48.860;9.188;2023-04-08T12:28:22;15.13;;;9.13;;
31818;SDS011;18384;48.860;9.188;2023-04-08T12:30:48;15.38;;;8.25;;
31818;SDS011;18384;48.860;9.188;2023-04-08T12:33:14;17.08;;;8.80;;
31818;SDS011;18384;48.860;9.188;2023-04-08T12:35:40;12.27;;;8.23;;
31818;SDS011;18384;48.860;9.188;2023-04-08T12:38:06;15.88;;;8.45;;
31818;SDS011;18384;48.860;9.188;2023-04-08T12:40:32;12.90;;;8.75;;
31818;SDS011;18384;48.860;9.188;2023-04-08T12:42:58;14.15;;;8.30;;
31818;SDS011;18384;48.860;9.188;2023-04-08T12:45:24;15.70;;;9.10;;
31818;SDS011;18384;48.860;9.188;2023-04-08T12:47:50;13.25;;;8.80;;
31818;SDS011;18384;48.860;9.188;2023-04-08T12:50:17;15.88;;;8.57;;
31818;SDS011;18384;48.860;9.188;2023-04-08T12:52:43;13.05;;;7.85;;
31818;SDS011;18384;48.860;9.188;2023-04-08T12:55:09;17.70;;;8.10;;
31818;SDS011;18384;48.860;9.188;2023-04-08T12:57:35;10.82;;;7.80;;
31818;SDS011;18384;48.860;9.188;2023-04-08T13:00:01;13.10;;;7.57;;
31818;SDS011;18384;48.860;9.188;2023-04-08T13:02:28;12.70;;;7.78;;
31818;SDS011;18384;48.860;9.188;2023-04-08T13:04:54;13.35;;;8.25;;
31818;SDS011;18384;48.860;9.188;2023-04-08T13:07:20;14.40;;;8.38;;
31818;SDS011;18384;48.860;9.188;2023-04-08T13:09:47;13.00;;;8.00;;
31818;SDS011;18384;48.860;9.188;2023-04-08T13:14:40;11.68;;;8.00;;
31818;SDS011;18384;48.860;9.188;2023-04-08T13:17:06;12.80;;;8.32;;
31818;SDS011;18384;48.860;9.188;2023-04-08T13:19:32;12.40;;;8.13;;
31818;SDS011;18384;48.860;9.188;2023-04-08T13:21:59;13.02;;;8.38;;
31818;SDS011;18384;48.860;9.188;2023-04-08T13:24:25;16.15;;;8.65;;
31818;SDS011;18384;48.860;9.188;2023-04-08T13:26:51;15.55;;;8.38;;
31818;SDS011;18384;48.860;9.188;2023-04-08T13:29:17;14.25;;;8.55;;
31818;SDS011;18384;48.860;9.188;2023-04-08T13:31:43;16.45;;;7.80;;
31818;SDS011;18384;48.860;9.188;2023-04-08T13:36:36;11.70;;;8.02;;
31818;SDS011;18384;48.860;9.188;2023-04-08T13:39:02;14.70;;;8.68;;
31818;SDS011;18384;48.860;9.188;2023-04-08T13:41:28;15.05;;;8.57;;
31818;SDS011;18384;48.860;9.188;2023-04-08T13:43:54;14.68;;;8.00;;
31818;SDS011;18384;48.860;9.188;2023-04-08T13:46:20;12.63;;;8.27;;
31818;SDS011;18384;48.860;9.188;2023-04-08T13:48:46;14.50;;;7.97;;
31818;SDS011;18384;48.860;9.188;2023-04-08T13:51:13;15.38;;;8.85;;
31818;SDS011;18384;48.860;9.188;2023-04-08T13:53:39;12.10;;;7.95;;
31818;SDS011;18384;48.860;9.188;2023-04-08T13:56:05;17.55;;;9.23;;
31818;SDS011;18384;48.860;9.188;2023-04-08T13:58:31;11.10;;;7.85;;
31818;SDS011;18384;48.860;9.188;2023-04-08T14:00:58;13.62;;;7.90;;
31818;SDS011;18384;48.860;9.188;2023-04-08T14:03:24;12.15;;;7.90;;
31818;SDS011;18384;48.860;9.188;2023-04-08T14:08:16;11.18;;;7.65;;
31818;SDS011;18384;48.860;9.188;2023-04-08T14:10:49;11.48;;;7.68;;
31818;SDS011;18384;48.860;9.188;2023-04-08T14:13:20;9.63;;;6.50;;
31818;SDS011;18384;48.860;9.188;2023-04-08T14:15:46;13.88;;;7.55;;
31818;SDS011;18384;48.860;9.188;2023-04-08T14:18:13;11.45;;;7.80;;
31818;SDS011;18384;48.860;9.188;2023-04-08T14:20:42;15.25;;;7.22;;
31818;SDS011;18384;48.860;9.188;2023-04-08T14:23:08;10.85;;;7.47;;
31818;SDS011;18384;48.860;9.188;2023-04-08T14:25:35;11.38;;;7.40;;
31818;SDS011;18384;48.860;9.188;2023-04-08T14:28:01;11.75;;;7.80;;
31818;SDS011;18384;48.860;9.188;2023-04-08T14:30:27;12.82;;;7.75;;
31818;SDS011;18384;48.860;9.188;2023-04-08T14:32:53;11.77;;;7.87;;
31818;SDS011;18384;48.860;9.188;2023-04-08T14:35:20;13.77;;;7.10;;
31818;SDS011;18384;48.860;9.188;2023-04-08T14:37:46;10.48;;;7.25;;
31818;SDS011;18384;48.860;9.188;2023-04-08T14:40:12;14.32;;;6.70;;
31818;SDS011;18384;48.860;9.188;2023-04-08T14:42:38;11.20;;;7.00;;
31818;SDS011;18384;48.860;9.188;2023-04-08T14:45:04;10.20;;;6.37;;
31818;SDS011;18384;48.860;9.188;2023-04-08T14:47:31;12.65;;;6.30;;
31818;SDS011;18384;48.860;9.188;2023-04-08T14:49:57;14.25;;;6.87;;
31818;SDS011;18384;48.860;9.188;2023-04-08T14:52:23;10.07;;;6.57;;
31818;SDS011;18384;48.860;9.188;2023-04-08T14:54:49;10.68;;;5.90;;
31818;SDS011;18384;48.860;9.188;2023-04-08T14:57:16;9.90;;;5.93;;
31818;SDS011;18384;48.860;9.188;2023-04-08T14:59:42;9.77;;;5.55;;
31818;SDS011;18384;48.860;9.188;2023-04-08T15:04:34;8.40;;;5.68;;
31818;SDS011;18384;48.860;9.188;2023-04-08T15:07:01;11.43;;;5.37;;
31818;SDS011;18384;48.860;9.188;2023-04-08T15:09:27;9.52;;;5.12;;
31818;SDS011;18384;48.860;9.188;2023-04-08T15:11:53;12.52;;;6.93;;
31818;SDS011;18384;48.860;9.188;2023-04-08T15:14:20;11.55;;;4.90;;
31818;SDS011;18384;48.860;9.188;2023-04-08T15:16:46;8.48;;;5.05;;
31818;SDS011;18384;48.860;9.188;2023-04-08T15:19:12;9.93;;;4.30;;
31818;SDS011;18384;48.860;9.188;2023-04-08T15:21:38;8.18;;;4.43;;
31818;SDS011;18384;48.860;9.188;2023-04-08T15:24:04;7.28;;;4.45;;
31818;SDS011;18384;48.860;9.188;2023-04-08T15:26:31;6.57;;;4.22;;
31818;SDS011;18384;48.860;9.188;2023-04-08T15:28:57;7.43;;;4.25;;
31818;SDS011;18384;48.860;9.188;2023-04-08T15:31:23;10.07;;;4.72;;
31818;SDS011;18384;48.860;9.188;2023-04-08T15:33:49;7.70;;;4.43;;
31818;SDS011;18384;48.860;9.188;2023-04-08T15:36:16;9.45;;;4.55;;